createdAt,value
2023-04-25T00:04:59.470Z,78.39
2023-04-25T00:10:03.573Z,77.82
2023-04-25T00:15:08.715Z,77.13
2023-04-25T00:20:12.787Z,76.24
2023-04-25T00:25:15.780Z,76.28
2023-04-25T00:30:18.819Z,76.25
2023-04-25T00:35:22.234Z,76.41
2023-04-25T00:40:25.349Z,77.00
2023-04-25T00:45:30.852Z,76.69
2023-04-25T00:50:35.447Z,76.76
2023-04-25T00:55:38.477Z,77.48
2023-04-25T01:00:42.995Z,77.68
2023-04-25T01:05:46.701Z,77.80
2023-04-25T01:10:49.688Z,77.53
2023-04-25T01:15:52.677Z,77.11
2023-04-25T01:20:56.652Z,77.29
2023-04-25T01:25:59.936Z,77.83
2023-04-25T01:31:03.447Z,78.17
2023-04-25T01:36:07.240Z,78.68
2023-04-25T01:41:10.571Z,78.93
2023-04-25T01:46:14.216Z,79.25
2023-04-25T01:51:17.272Z,79.17
2023-04-25T01:56:20.311Z,78.66
2023-04-25T02:01:23.668Z,76.74
2023-04-25T02:06:26.687Z,75.01
2023-04-25T02:11:29.735Z,74.58
2023-04-25T02:16:33.383Z,74.71
2023-04-25T02:21:36.922Z,75.14
2023-04-25T02:26:39.915Z,74.97
2023-04-25T02:31:43.754Z,73.19
2023-04-25T02:36:46.850Z,71.64
2023-04-25T02:41:49.775Z,69.17
2023-04-25T02:46:52.850Z,69.30
2023-04-25T02:51:55.952Z,69.72
2023-04-25T02:56:59.052Z,70.16
2023-04-25T03:02:02.752Z,70.43
2023-04-25T03:07:05.955Z,71.50
2023-04-25T03:12:08.968Z,72.41
2023-04-25T03:17:11.901Z,73.33
2023-04-25T03:22:14.989Z,73.48
2023-04-25T03:27:18.801Z,73.68
2023-04-25T03:32:22.010Z,73.00
2023-04-25T03:37:25.316Z,73.77
2023-04-25T03:42:28.361Z,73.72
2023-04-25T03:47:31.359Z,74.01
2023-04-25T03:52:34.272Z,74.24
2023-04-25T03:57:37.230Z,73.63
2023-04-25T04:02:41.420Z,74.18
2023-04-25T04:07:46.219Z,74.62
2023-04-25T04:12:49.219Z,75.43
2023-04-25T04:17:52.920Z,76.43
2023-04-25T04:22:55.934Z,77.78
2023-04-25T04:28:00.087Z,79.16
2023-04-25T04:33:04.555Z,79.48
2023-04-25T04:38:07.509Z,80.78
2023-04-25T04:43:11.280Z,81.05
2023-04-25T04:48:15.106Z,81.78
2023-04-25T04:53:18.201Z,82.75
2023-04-25T04:58:21.353Z,82.87
2023-04-25T05:03:24.436Z,83.71
2023-04-25T05:08:27.563Z,84.38
2023-04-25T05:13:30.705Z,85.09
2023-04-25T05:18:33.682Z,85.48
2023-04-25T05:23:36.628Z,85.87
2023-04-25T05:28:43.338Z,86.23
2023-04-25T05:33:46.401Z,85.83
2023-04-25T05:38:49.310Z,84.74
2023-04-25T05:43:53.558Z,85.37
2023-04-25T05:48:57.769Z,86.21
2023-04-25T05:54:00.908Z,86.35
2023-04-25T05:59:04.286Z,87.69
2023-04-25T06:04:07.420Z,89.23
2023-04-25T06:09:11.814Z,90.28
2023-04-25T06:14:16.282Z,92.07
2023-04-25T06:19:20.309Z,93.74
2023-04-25T06:24:23.288Z,95.15
2023-04-25T06:29:26.366Z,96.69
2023-04-25T06:34:29.344Z,97.57
2023-04-25T06:39:32.804Z,98.08
2023-04-25T06:44:37.216Z,98.57
2023-04-25T06:49:40.368Z,98.87
2023-04-25T06:54:43.318Z,98.78
2023-04-25T06:59:46.968Z,98.47
2023-04-25T07:04:50.049Z,98.76
2023-04-25T07:09:53.161Z,99.04
2023-04-25T07:14:56.157Z,98.26
2023-04-25T07:19:59.377Z,97.37
2023-04-25T07:25:02.522Z,96.50
2023-04-25T07:30:08.304Z,96.54
2023-04-25T07:35:11.363Z,96.59
2023-04-25T07:40:16.789Z,96.02
2023-04-25T07:45:19.872Z,94.89
2023-04-25T07:50:23.155Z,94.38
2023-04-25T07:55:27.805Z,93.38
2023-04-25T08:00:30.766Z,92.30
2023-04-25T08:05:35.856Z,91.52
2023-04-25T08:10:38.932Z,90.34
2023-04-25T08:15:42.071Z,88.63
2023-04-25T08:20:48.026Z,86.97
2023-04-25T08:25:51.153Z,86.15
2023-04-25T08:30:54.630Z,84.73
2023-04-25T08:35:58.937Z,83.20
2023-04-25T08:41:02.464Z,80.69
2023-04-25T08:46:07.122Z,79.92
2023-04-25T08:51:16.474Z,80.15
2023-04-25T08:56:23.199Z,79.79
2023-04-25T09:01:26.928Z,78.77
2023-04-25T09:06:35.743Z,78.64
2023-04-25T09:11:39.142Z,77.25
2023-04-25T09:17:05.760Z,76.04
2023-04-25T09:22:10.363Z,77.15
2023-04-25T09:27:20.062Z,77.20
2023-04-25T09:32:25.730Z,75.46
2023-04-25T09:37:31.390Z,73.86
2023-04-25T09:42:35.747Z,75.75
2023-04-25T09:47:39.924Z,72.09
2023-04-25T09:52:45.424Z,70.21
2023-04-25T09:57:53.788Z,67.92
2023-04-25T10:03:04.823Z,68.19
2023-04-25T10:08:09.759Z,68.89
2023-04-25T10:13:15.829Z,66.89
2023-04-25T10:18:20.959Z,67.01
2023-04-25T10:23:26.119Z,66.87
2023-04-25T10:28:33.633Z,65.25
2023-04-25T10:33:43.119Z,64.88
2023-04-25T10:38:48.286Z,64.56
2023-04-25T10:44:02.321Z,63.10
2023-04-25T10:49:05.569Z,64.18
2023-04-25T10:54:09.920Z,64.50
2023-04-25T10:59:20.681Z,61.44
2023-04-25T11:04:37.425Z,62.62
2023-04-25T11:09:42.223Z,58.50
2023-04-25T11:14:45.489Z,56.74
2023-04-25T11:19:50.476Z,57.06
2023-04-25T11:24:53.870Z,56.54
2023-04-25T11:29:57.008Z,55.57
2023-04-25T11:35:01.143Z,53.77
2023-04-25T11:40:07.542Z,53.68
2023-04-25T11:45:11.790Z,50.24
2023-04-25T11:50:15.401Z,49.48
2023-04-25T11:55:21.196Z,51.04
2023-04-25T12:00:25.209Z,52.56
2023-04-25T12:05:33.767Z,50.17
2023-04-25T12:10:43.936Z,50.07
2023-04-25T12:15:47.157Z,50.67
2023-04-25T12:20:50.036Z,52.63
2023-04-25T12:25:53.752Z,51.77
2023-04-25T12:31:04.269Z,51.61
2023-04-25T12:36:12.217Z,47.24
2023-04-25T12:41:15.680Z,46.95
2023-04-25T12:46:18.707Z,43.37
2023-04-25T12:51:21.837Z,40.97
2023-04-25T12:56:25.886Z,41.15
2023-04-25T13:01:29.080Z,39.37
2023-04-25T13:06:32.465Z,38.50
2023-04-25T13:11:35.657Z,38.51
2023-04-25T13:16:38.705Z,36.85
2023-04-25T13:21:41.686Z,39.16
2023-04-25T13:26:45.117Z,37.64
2023-04-25T13:31:48.030Z,36.32
2023-04-25T13:36:51.118Z,34.48
2023-04-25T13:41:54.152Z,33.46
2023-04-25T13:46:57.312Z,34.31
2023-04-25T13:52:00.354Z,35.06
2023-04-25T13:57:03.727Z,34.89
2023-04-25T14:02:06.753Z,34.48
2023-04-25T14:07:10.172Z,35.04
2023-04-25T14:12:13.375Z,35.49
2023-04-25T14:17:16.485Z,35.22
2023-04-25T14:22:20.188Z,35.83
2023-04-25T14:27:23.576Z,33.93
2023-04-25T14:32:26.896Z,33.92
2023-04-25T14:37:29.887Z,33.29
2023-04-25T14:42:34.056Z,33.12
2023-04-25T14:47:40.420Z,31.97
2023-04-25T14:52:44.005Z,32.44
2023-04-25T14:57:47.068Z,32.86
2023-04-25T15:02:50.634Z,32.74
2023-04-25T15:07:53.853Z,32.82
2023-04-25T15:12:57.124Z,33.84
2023-04-25T15:18:01.073Z,35.63
2023-04-25T15:23:05.882Z,37.09
2023-04-25T15:28:08.898Z,38.62
2023-04-25T15:33:12.070Z,38.67
2023-04-25T15:38:15.193Z,39.33
2023-04-25T15:43:18.153Z,39.29
2023-04-25T15:48:21.270Z,39.95
2023-04-25T15:53:24.357Z,43.93
2023-04-25T15:58:27.793Z,46.89
2023-04-25T16:03:33.773Z,48.01
2023-04-25T16:08:39.039Z,49.47
2023-04-25T16:13:42.040Z,49.97
2023-04-25T16:18:45.066Z,50.41
2023-04-25T16:23:48.329Z,52.24
2023-04-25T16:28:52.662Z,54.26
2023-04-25T16:33:55.849Z,55.44
2023-04-25T16:39:01.143Z,56.69
2023-04-25T16:44:06.726Z,57.83
2023-04-25T16:49:09.725Z,58.64
2023-04-25T16:54:13.005Z,59.57
2023-04-25T16:59:15.970Z,59.75
2023-04-25T17:04:19.059Z,59.67
2023-04-25T17:09:22.186Z,58.42
2023-04-25T17:14:25.249Z,57.42
2023-04-25T17:19:28.661Z,57.45
2023-04-25T17:24:31.703Z,57.67
2023-04-25T17:29:35.314Z,57.52
2023-04-25T17:34:40.191Z,58.03
2023-04-25T17:39:46.947Z,58.42
2023-04-25T17:44:50.187Z,58.40
2023-04-25T17:49:56.666Z,58.70
2023-04-25T17:54:59.755Z,59.16
2023-04-25T18:00:05.788Z,59.32
2023-04-25T18:05:10.994Z,59.63
2023-04-25T18:10:15.000Z,60.02
2023-04-25T18:15:18.404Z,60.23
2023-04-25T18:20:22.375Z,60.95
2023-04-25T18:25:25.362Z,62.62
2023-04-25T18:30:31.861Z,63.58
2023-04-25T18:35:35.994Z,63.92
2023-04-25T18:40:56.437Z,64.56
2023-04-25T18:46:03.002Z,64.73
2023-04-25T18:51:06.157Z,65.31
2023-04-25T18:56:09.880Z,65.96
2023-04-25T19:01:13.284Z,66.34
2023-04-25T19:06:16.762Z,66.73
2023-04-25T19:11:21.486Z,67.33
2023-04-25T19:16:26.518Z,67.98
2023-04-25T19:21:29.738Z,68.50
2023-04-25T19:26:32.953Z,69.08
2023-04-25T19:31:37.990Z,69.26
2023-04-25T19:36:42.634Z,69.06
2023-04-25T19:41:45.820Z,68.79
2023-04-25T19:46:49.618Z,68.09
2023-04-25T19:51:52.831Z,67.89
2023-04-25T19:56:56.293Z,67.68
2023-04-25T20:02:00.917Z,67.62
2023-04-25T20:07:04.537Z,67.83
2023-04-25T20:12:07.902Z,68.58
2023-04-25T20:17:11.276Z,69.66
2023-04-25T20:22:14.318Z,70.10
2023-04-25T20:27:17.269Z,70.77
2023-04-25T20:32:20.994Z,71.56
2023-04-25T20:37:24.040Z,72.08
2023-04-25T20:42:27.056Z,72.67
2023-04-25T20:47:30.219Z,72.80
2023-04-25T20:52:33.667Z,72.90
2023-04-25T20:57:37.252Z,72.72
2023-04-25T21:02:40.324Z,72.41
2023-04-25T21:07:43.460Z,71.84
2023-04-25T21:12:50.135Z,71.07
2023-04-25T21:17:53.238Z,70.77
2023-04-25T21:22:56.182Z,71.49
2023-04-25T21:28:00.028Z,72.20
2023-04-25T21:33:03.601Z,73.15
2023-04-25T21:38:07.581Z,74.06
2023-04-25T21:43:10.650Z,74.80
2023-04-25T21:48:13.666Z,75.23
2023-04-25T21:53:16.819Z,75.79
2023-04-25T21:58:19.852Z,76.31
2023-04-25T22:03:22.993Z,76.54
2023-04-25T22:08:26.072Z,76.82
2023-04-25T22:13:29.106Z,76.82
2023-04-25T22:18:32.060Z,77.05
2023-04-25T22:23:35.027Z,77.24
2023-04-25T22:28:39.751Z,77.53
2023-04-25T22:33:46.990Z,77.53
2023-04-25T22:38:50.876Z,77.80
2023-04-25T22:43:54.039Z,77.64
2023-04-25T22:48:57.590Z,78.00
2023-04-25T22:54:01.567Z,78.00
2023-04-25T22:59:04.674Z,77.40
2023-04-25T23:04:08.026Z,75.14
2023-04-25T23:09:12.639Z,73.08
2023-04-25T23:14:15.771Z,71.04
2023-04-25T23:19:18.656Z,69.56
2023-04-25T23:24:21.548Z,69.50
2023-04-25T23:29:24.553Z,68.80
2023-04-25T23:34:31.666Z,69.01
2023-04-25T23:39:34.708Z,68.95
2023-04-25T23:44:37.591Z,69.64
2023-04-25T23:49:41.166Z,70.74
2023-04-25T23:54:44.172Z,71.00
2023-04-25T23:59:47.221Z,71.42
